Nearby METAR Reports

 

KSJC - San Jose, California, USA
Distance from station: NE 9mi, 14km
Updated: Thu, 02-Apr-2020 4:53pm PDT
Few Clouds
Few Clouds
 Wind from NNW
Wind: NNW 15 mph , 24 km/h
Temperature: 66°F , 19°C
Dew Point: 27°F , -3°C
Humidity: 22%
Barometer: 30.06 inHg , 1017.9 hPa
Clouds: Few Clouds
Visibility: 10 miles , 16 km
Cloud details: Few Clouds 6500 ft
2020/04/02 23:53 KSJC 022353Z 33013KT 10SM FEW065 19/M03 A3006 RMK AO2 SLP179 T01891028 10189 20144 55005
KNUQ - Moffett Nas/Mtn, California, USA
Distance from station: N 9mi, 14km
Updated: Thu, 21-Nov-2019 8:56am PST
NOT Current

 
Barometer: 29.86 inHg , 1011.2 hPa
2019/11/21 16:56 KNUQ 211656Z AUTO A2986 RMK AO2 SLP116 PWINO $
 
KPAO - Palo Alto, California, USA
Distance from station: NNW 14mi, 23km
Updated: Thu, 02-Apr-2020 4:47pm PDT
Clear
Clear
 Wind from WNW
Wind: WNW 15 mph , 24 km/h
Temperature: 64°F , 18°C
Dew Point: 34°F , 1°C
Humidity: 32%
Barometer: 30.07 inHg , 1018.3 hPa
Clouds: Clear
Visibility: 10 miles , 16 km
2020/04/02 23:47 KPAO 022347Z 30013KT 10SM SKC 18/01 A3007
KRHV - San Jose/Reid, California, USA
Distance from station: ENE 12mi, 19km
Updated: Thu, 02-Apr-2020 4:47pm PDT
Clear
Clear
 Wind from NW
Wind: NW 10 mph , 17 km/h
Temperature: 64°F , 18°C
Dew Point: 30°F , -1°C
Humidity: 28%
Barometer: 30.06 inHg , 1017.9 hPa
Clouds: Clear
Visibility: 10 miles , 16 km
2020/04/02 23:47 KRHV 022347Z 32009KT 10SM SKC 18/M01 A3006
 
KOAK - Oakland, California, USA
Distance from station: NNW 31mi, 50km
Updated: Thu, 02-Apr-2020 4:53pm PDT
Clear
Clear
 Wind from WSW
Wind: WSW 18 mph , 30 km/h
Temperature: 63°F , 17°C
Dew Point: 39°F , 4°C
Humidity: 42%
Barometer: 30.08 inHg , 1018.6 hPa
Clouds: Clear
Visibility: 10 miles , 16 km
2020/04/02 23:53 KOAK 022353Z 25016KT 10SM CLR 17/04 A3008 RMK AO2 SLP187 T01670044 10189 20156 55000
KSQL - San Carlos Airpo, California, USA
Distance from station: NW 21mi, 34km
Updated: Thu, 02-Apr-2020 4:47pm PDT
Clear
Clear
 Wind from W
Wind: W 12 mph , 19 km/h, Gust: 21 mph , 33 km/h
Temperature: 63°F , 17°C
Dew Point: 32°F , 0°C
Humidity: 32%
Barometer: 30.08 inHg , 1018.6 hPa
Clouds: Clear
Visibility: 10 miles , 16 km
2020/04/02 23:47 KSQL 022347Z 28010G18KT 10SM SKC 17/00 A3008
 
KSFO - San Francisco, California, USA
Distance from station: NW 30mi, 49km
Updated: Thu, 02-Apr-2020 4:56pm PDT
Few Clouds
Few Clouds
 Wind from W
Wind: W 24 mph , 39 km/h
Temperature: 59°F , 15°C
Dew Point: 39°F , 4°C
Humidity: 48%
Barometer: 30.09 inHg , 1019 hPa
Clouds: Few Clouds
Visibility: 10 miles , 16 km
Cloud details: Few Clouds 1500 ft
Few Clouds 3300 ft
2020/04/02 23:56 KSFO 022356Z 27021KT 10SM FEW015 FEW033 15/04 A3009 RMK AO2 PK WND 27026/2356 SLP189 T01500039 10172 20139 58001
KE16 - San Martin, California, USA
Distance from station: ESE 27mi, 43km
Updated: Thu, 14-Nov-2019 1:35am PST
NOT Current
Overcast
Overcast
 Wind from SE
Wind: SE 7 mph , 11 km/h
Temperature: 54°F , 12°C
Dew Point: 50°F , 10°C
Humidity: 88%
Barometer: 30.05 inHg , 1017.6 hPa
Clouds: Overcast
Visibility: 10 miles , 16 km
Cloud details: Overcast 1400 ft
2019/11/14 09:35 KE16 140935Z AUTO 13006KT 10SM OVC014 12/10 A3005 RMK AO2
 
KWVI - Watsonville, California, USA
Distance from station: SSE 27mi, 44km
Updated: Thu, 02-Apr-2020 4:53pm PDT
Clear
Clear
 Wind from SW
Wind: SW 6 mph , 9 km/h
Temperature: 64°F , 18°C
Dew Point: 39°F , 4°C
Humidity: 40%
Barometer: 30.06 inHg , 1017.9 hPa
Clouds: Clear
Visibility: 10 miles , 16 km
2020/04/02 23:53 KWVI 022353Z AUTO 22005KT 10SM CLR 18/04 A3006 RMK AO2 SLP177 T01780044 10183 20133 58008
KHAF - Half Moon Bay, California, USA
Distance from station: WNW 31mi, 50km
Updated: Thu, 02-Apr-2020 5:20pm PDT
Clear
Clear
 Wind from NW
Wind: NW 23 mph , 37 km/h, Gust: 28 mph , 44 km/h
Temperature: 55°F , 13°C
Dew Point: 41°F , 5°C
Humidity: 59%
Barometer: 30.11 inHg , 1019.6 hPa
Clouds: Clear
Visibility: 8 miles , 13 km
2020/04/03 00:20 KHAF 030020Z AUTO 32020G24KT 8SM CLR 13/05 A3011 RMK AO2
 
KHWD - Hayward, California, USA
Distance from station: N 28mi, 44km
Updated: Thu, 02-Apr-2020 4:54pm PDT
Clear
Clear
 Wind from W
Wind: W 20 mph , 31 km/h, Gust: 25 mph , 41 km/h
Temperature: 61°F , 16°C
Dew Point: 37°F , 3°C
Humidity: 42%
Barometer: 30.08 inHg , 1018.6 hPa
Clouds: Clear
Visibility: 10 miles , 16 km
2020/04/02 23:54 KHWD 022354Z 28017G22KT 10SM CLR 16/03 A3008 RMK AO2 SLP195 T01560033 10183 20139 51002
KLVK - Livermore, California, USA
Distance from station: NNE 31mi, 51km
Updated: Thu, 02-Apr-2020 4:53pm PDT
Clear
Clear
 Wind from W
Wind: W 17 mph , 28 km/h
Temperature: 63°F , 17°C
Dew Point: 34°F , 1°C
Humidity: 34%
Barometer: 30.04 inHg , 1017.3 hPa
Clouds: Clear
Visibility: 10 miles , 16 km
2020/04/02 23:53 KLVK 022353Z 27015KT 10SM CLR 17/01 A3004 RMK AO2 SLP173 T01670011 10189 20139 55002